sensor_id;sensor_type;location;lat;lon;timestamp;P1;durP1;ratioP1;P2;durP2;ratioP2
22166;SDS011;11249;52.468;13.776;2023-07-31T00:01:24;4.70;;;2.13;;
22166;SDS011;11249;52.468;13.776;2023-07-31T00:03:51;3.92;;;2.05;;
22166;SDS011;11249;52.468;13.776;2023-07-31T00:06:17;2.53;;;1.58;;
22166;SDS011;11249;52.468;13.776;2023-07-31T00:08:44;5.07;;;2.00;;
22166;SDS011;11249;52.468;13.776;2023-07-31T00:11:11;4.13;;;2.28;;
22166;SDS011;11249;52.468;13.776;2023-07-31T00:13:37;3.90;;;2.00;;
22166;SDS011;11249;52.468;13.776;2023-07-31T00:16:04;4.50;;;1.90;;
22166;SDS011;11249;52.468;13.776;2023-07-31T00:18:32;3.00;;;1.85;;
22166;SDS011;11249;52.468;13.776;2023-07-31T00:20:58;3.58;;;2.20;;
22166;SDS011;11249;52.468;13.776;2023-07-31T00:23:25;4.18;;;2.03;;
22166;SDS011;11249;52.468;13.776;2023-07-31T00:25:52;2.50;;;1.75;;
22166;SDS011;11249;52.468;13.776;2023-07-31T00:28:18;4.53;;;2.17;;
22166;SDS011;11249;52.468;13.776;2023-07-31T00:30:45;4.25;;;1.73;;
22166;SDS011;11249;52.468;13.776;2023-07-31T00:33:12;4.82;;;1.85;;
22166;SDS011;11249;52.468;13.776;2023-07-31T00:35:39;3.28;;;1.77;;
22166;SDS011;11249;52.468;13.776;2023-07-31T00:38:05;5.32;;;2.08;;
22166;SDS011;11249;52.468;13.776;2023-07-31T00:40:36;5.40;;;2.22;;
22166;SDS011;11249;52.468;13.776;2023-07-31T00:43:03;4.03;;;1.85;;
22166;SDS011;11249;52.468;13.776;2023-07-31T00:45:30;2.55;;;2.10;;
22166;SDS011;11249;52.468;13.776;2023-07-31T00:47:57;4.53;;;1.75;;
22166;SDS011;11249;52.468;13.776;2023-07-31T00:50:25;3.88;;;1.95;;
22166;SDS011;11249;52.468;13.776;2023-07-31T00:52:52;5.45;;;2.00;;
22166;SDS011;11249;52.468;13.776;2023-07-31T00:55:18;4.45;;;1.80;;
22166;SDS011;11249;52.468;13.776;2023-07-31T00:57:45;7.18;;;2.17;;
22166;SDS011;11249;52.468;13.776;2023-07-31T01:00:12;3.25;;;1.95;;
22166;SDS011;11249;52.468;13.776;2023-07-31T01:02:39;5.40;;;2.15;;
22166;SDS011;11249;52.468;13.776;2023-07-31T01:05:06;3.75;;;2.00;;
22166;SDS011;11249;52.468;13.776;2023-07-31T01:07:42;2.30;;;1.75;;
22166;SDS011;11249;52.468;13.776;2023-07-31T01:10:24;5.93;;;2.20;;
22166;SDS011;11249;52.468;13.776;2023-07-31T01:12:56;2.97;;;2.17;;
22166;SDS011;11249;52.468;13.776;2023-07-31T01:15:23;4.82;;;2.72;;
22166;SDS011;11249;52.468;13.776;2023-07-31T01:17:50;6.10;;;2.17;;
22166;SDS011;11249;52.468;13.776;2023-07-31T01:20:18;4.63;;;2.63;;
22166;SDS011;11249;52.468;13.776;2023-07-31T01:22:58;4.93;;;2.42;;
22166;SDS011;11249;52.468;13.776;2023-07-31T01:26:02;3.80;;;2.28;;
22166;SDS011;11249;52.468;13.776;2023-07-31T01:31:25;5.13;;;2.30;;
22166;SDS011;11249;52.468;13.776;2023-07-31T01:33:53;5.50;;;2.80;;
22166;SDS011;11249;52.468;13.776;2023-07-31T01:36:20;5.43;;;2.78;;
22166;SDS011;11249;52.468;13.776;2023-07-31T01:38:48;4.20;;;2.35;;
22166;SDS011;11249;52.468;13.776;2023-07-31T01:41:16;7.55;;;3.15;;
22166;SDS011;11249;52.468;13.776;2023-07-31T01:43:46;5.63;;;2.90;;
22166;SDS011;11249;52.468;13.776;2023-07-31T01:46:13;2.45;;;2.25;;
22166;SDS011;11249;52.468;13.776;2023-07-31T01:48:40;4.35;;;2.50;;
22166;SDS011;11249;52.468;13.776;2023-07-31T01:51:07;7.63;;;2.70;;
22166;SDS011;11249;52.468;13.776;2023-07-31T01:53:33;3.38;;;2.30;;
22166;SDS011;11249;52.468;13.776;2023-07-31T01:56:00;4.10;;;2.83;;
22166;SDS011;11249;52.468;13.776;2023-07-31T01:58:27;4.60;;;2.85;;
22166;SDS011;11249;52.468;13.776;2023-07-31T02:00:53;3.63;;;2.80;;
22166;SDS011;11249;52.468;13.776;2023-07-31T02:03:20;4.05;;;3.08;;
22166;SDS011;11249;52.468;13.776;2023-07-31T02:05:48;3.45;;;2.90;;
22166;SDS011;11249;52.468;13.776;2023-07-31T02:08:15;5.57;;;3.20;;
22166;SDS011;11249;52.468;13.776;2023-07-31T02:10:42;6.20;;;2.83;;
22166;SDS011;11249;52.468;13.776;2023-07-31T02:13:09;7.18;;;2.80;;
22166;SDS011;11249;52.468;13.776;2023-07-31T02:15:36;6.57;;;2.80;;
22166;SDS011;11249;52.468;13.776;2023-07-31T02:18:03;7.38;;;3.70;;
22166;SDS011;11249;52.468;13.776;2023-07-31T02:20:33;5.18;;;3.10;;
22166;SDS011;11249;52.468;13.776;2023-07-31T02:23:00;4.00;;;2.95;;
22166;SDS011;11249;52.468;13.776;2023-07-31T02:25:27;5.38;;;3.15;;
22166;SDS011;11249;52.468;13.776;2023-07-31T02:27:54;4.72;;;3.17;;
22166;SDS011;11249;52.468;13.776;2023-07-31T02:30:20;6.60;;;2.97;;
22166;SDS011;11249;52.468;13.776;2023-07-31T02:32:47;5.10;;;3.28;;
22166;SDS011;11249;52.468;13.776;2023-07-31T02:35:14;4.53;;;3.10;;
22166;SDS011;11249;52.468;13.776;2023-07-31T02:37:42;5.18;;;3.38;;
22166;SDS011;11249;52.468;13.776;2023-07-31T02:40:08;6.60;;;3.95;;
22166;SDS011;11249;52.468;13.776;2023-07-31T02:42:36;5.90;;;3.17;;
22166;SDS011;11249;52.468;13.776;2023-07-31T02:45:02;6.82;;;3.70;;
22166;SDS011;11249;52.468;13.776;2023-07-31T02:47:29;6.72;;;3.60;;
22166;SDS011;11249;52.468;13.776;2023-07-31T02:49:56;8.00;;;3.80;;
22166;SDS011;11249;52.468;13.776;2023-07-31T02:52:22;6.75;;;3.90;;
22166;SDS011;11249;52.468;13.776;2023-07-31T02:54:49;9.38;;;4.10;;
22166;SDS011;11249;52.468;13.776;2023-07-31T02:57:16;8.05;;;3.60;;
22166;SDS011;11249;52.468;13.776;2023-07-31T02:59:42;6.10;;;3.92;;
22166;SDS011;11249;52.468;13.776;2023-07-31T03:02:09;7.57;;;4.05;;
22166;SDS011;11249;52.468;13.776;2023-07-31T03:04:37;6.78;;;4.05;;
22166;SDS011;11249;52.468;13.776;2023-07-31T03:07:03;5.22;;;3.80;;
22166;SDS011;11249;52.468;13.776;2023-07-31T03:09:30;6.22;;;4.20;;
22166;SDS011;11249;52.468;13.776;2023-07-31T03:11:57;8.82;;;4.53;;
22166;SDS011;11249;52.468;13.776;2023-07-31T03:14:24;5.80;;;4.20;;
22166;SDS011;11249;52.468;13.776;2023-07-31T03:16:53;9.02;;;4.57;;
22166;SDS011;11249;52.468;13.776;2023-07-31T03:19:19;9.02;;;4.70;;
22166;SDS011;11249;52.468;13.776;2023-07-31T03:21:46;5.38;;;4.65;;
22166;SDS011;11249;52.468;13.776;2023-07-31T03:24:13;7.22;;;4.45;;
22166;SDS011;11249;52.468;13.776;2023-07-31T03:26:40;10.00;;;4.97;;
22166;SDS011;11249;52.468;13.776;2023-07-31T03:29:08;8.20;;;4.97;;
22166;SDS011;11249;52.468;13.776;2023-07-31T03:31:34;14.73;;;5.93;;
22166;SDS011;11249;52.468;13.776;2023-07-31T03:34:01;7.68;;;5.22;;
22166;SDS011;11249;52.468;13.776;2023-07-31T03:36:28;8.88;;;4.47;;
22166;SDS011;11249;52.468;13.776;2023-07-31T03:38:55;5.25;;;4.72;;
22166;SDS011;11249;52.468;13.776;2023-07-31T03:41:21;9.20;;;4.90;;
22166;SDS011;11249;52.468;13.776;2023-07-31T03:43:50;6.70;;;4.80;;
22166;SDS011;11249;52.468;13.776;2023-07-31T03:46:18;9.63;;;4.68;;
22166;SDS011;11249;52.468;13.776;2023-07-31T03:48:44;10.50;;;5.60;;
22166;SDS011;11249;52.468;13.776;2023-07-31T03:51:11;6.95;;;5.35;;
22166;SDS011;11249;52.468;13.776;2023-07-31T03:53:38;8.27;;;4.85;;
22166;SDS011;11249;52.468;13.776;2023-07-31T03:56:05;8.40;;;4.80;;
22166;SDS011;11249;52.468;13.776;2023-07-31T03:58:32;7.53;;;4.80;;
22166;SDS011;11249;52.468;13.776;2023-07-31T04:00:58;9.48;;;5.45;;
22166;SDS011;11249;52.468;13.776;2023-07-31T04:03:25;9.20;;;5.22;;
22166;SDS011;11249;52.468;13.776;2023-07-31T04:05:53;9.70;;;4.85;;
22166;SDS011;11249;52.468;13.776;2023-07-31T04:08:21;8.88;;;4.70;;
22166;SDS011;11249;52.468;13.776;2023-07-31T04:10:48;8.60;;;4.82;;
22166;SDS011;11249;52.468;13.776;2023-07-31T04:13:15;8.25;;;5.30;;
22166;SDS011;11249;52.468;13.776;2023-07-31T04:15:41;10.13;;;4.95;;
22166;SDS011;11249;52.468;13.776;2023-07-31T04:18:08;8.77;;;4.50;;
22166;SDS011;11249;52.468;13.776;2023-07-31T04:20:35;9.32;;;4.60;;
22166;SDS011;11249;52.468;13.776;2023-07-31T04:23:02;7.80;;;4.45;;
22166;SDS011;11249;52.468;13.776;2023-07-31T04:25:28;8.63;;;4.57;;
22166;SDS011;11249;52.468;13.776;2023-07-31T04:27:55;12.60;;;4.82;;
22166;SDS011;11249;52.468;13.776;2023-07-31T04:30:22;11.43;;;4.93;;
22166;SDS011;11249;52.468;13.776;2023-07-31T04:32:48;6.68;;;4.32;;
22166;SDS011;11249;52.468;13.776;2023-07-31T04:35:15;8.45;;;4.45;;
22166;SDS011;11249;52.468;13.776;2023-07-31T04:37:42;8.50;;;4.32;;
22166;SDS011;11249;52.468;13.776;2023-07-31T04:40:09;7.32;;;4.03;;
22166;SDS011;11249;52.468;13.776;2023-07-31T04:42:36;9.18;;;3.92;;
22166;SDS011;11249;52.468;13.776;2023-07-31T04:45:02;4.78;;;3.97;;
22166;SDS011;11249;52.468;13.776;2023-07-31T04:47:30;7.25;;;4.22;;
22166;SDS011;11249;52.468;13.776;2023-07-31T04:49:56;9.07;;;4.82;;
22166;SDS011;11249;52.468;13.776;2023-07-31T04:52:23;8.57;;;4.30;;
22166;SDS011;11249;52.468;13.776;2023-07-31T04:54:50;11.02;;;4.72;;
22166;SDS011;11249;52.468;13.776;2023-07-31T04:57:16;10.05;;;4.65;;
22166;SDS011;11249;52.468;13.776;2023-07-31T04:59:43;7.10;;;4.13;;
22166;SDS011;11249;52.468;13.776;2023-07-31T05:02:11;6.47;;;4.20;;
22166;SDS011;11249;52.468;13.776;2023-07-31T05:04:39;7.37;;;4.60;;
22166;SDS011;11249;52.468;13.776;2023-07-31T05:07:06;5.80;;;4.00;;
22166;SDS011;11249;52.468;13.776;2023-07-31T05:09:32;6.40;;;3.70;;
22166;SDS011;11249;52.468;13.776;2023-07-31T05:11:59;8.05;;;4.10;;
22166;SDS011;11249;52.468;13.776;2023-07-31T05:14:26;5.72;;;4.25;;
22166;SDS011;11249;52.468;13.776;2023-07-31T05:16:52;7.63;;;4.13;;
22166;SDS011;11249;52.468;13.776;2023-07-31T05:19:19;7.90;;;4.25;;
22166;SDS011;11249;52.468;13.776;2023-07-31T05:21:46;6.85;;;4.07;;
22166;SDS011;11249;52.468;13.776;2023-07-31T05:24:12;14.55;;;4.50;;
22166;SDS011;11249;52.468;13.776;2023-07-31T05:26:39;10.65;;;4.32;;
22166;SDS011;11249;52.468;13.776;2023-07-31T05:29:06;9.52;;;3.97;;
22166;SDS011;11249;52.468;13.776;2023-07-31T05:31:33;7.85;;;3.72;;
22166;SDS011;11249;52.468;13.776;2023-07-31T05:34:00;6.88;;;3.38;;
22166;SDS011;11249;52.468;13.776;2023-07-31T05:36:26;6.05;;;3.88;;
22166;SDS011;11249;52.468;13.776;2023-07-31T05:38:53;7.65;;;4.25;;
22166;SDS011;11249;52.468;13.776;2023-07-31T05:41:20;7.68;;;3.85;;
22166;SDS011;11249;52.468;13.776;2023-07-31T05:43:46;5.85;;;3.55;;
22166;SDS011;11249;52.468;13.776;2023-07-31T05:46:13;7.47;;;3.67;;
22166;SDS011;11249;52.468;13.776;2023-07-31T05:48:40;8.57;;;3.92;;
22166;SDS011;11249;52.468;13.776;2023-07-31T05:51:07;10.60;;;3.45;;
22166;SDS011;11249;52.468;13.776;2023-07-31T05:53:34;9.20;;;3.47;;
22166;SDS011;11249;52.468;13.776;2023-07-31T05:56:02;5.60;;;3.50;;
22166;SDS011;11249;52.468;13.776;2023-07-31T05:58:29;6.47;;;3.10;;
22166;SDS011;11249;52.468;13.776;2023-07-31T06:00:55;5.13;;;3.15;;
22166;SDS011;11249;52.468;13.776;2023-07-31T06:03:22;9.93;;;3.45;;
22166;SDS011;11249;52.468;13.776;2023-07-31T06:05:49;8.38;;;3.55;;
22166;SDS011;11249;52.468;13.776;2023-07-31T06:08:16;7.43;;;3.47;;
22166;SDS011;11249;52.468;13.776;2023-07-31T06:10:42;7.40;;;3.47;;
22166;SDS011;11249;52.468;13.776;2023-07-31T06:13:09;6.90;;;3.10;;
22166;SDS011;11249;52.468;13.776;2023-07-31T06:15:36;6.68;;;3.75;;
22166;SDS011;11249;52.468;13.776;2023-07-31T06:18:02;8.07;;;3.47;;
22166;SDS011;11249;52.468;13.776;2023-07-31T06:20:30;5.97;;;3.30;;
22166;SDS011;11249;52.468;13.776;2023-07-31T06:22:57;7.63;;;4.00;;
22166;SDS011;11249;52.468;13.776;2023-07-31T06:25:24;8.63;;;3.75;;
22166;SDS011;11249;52.468;13.776;2023-07-31T06:27:51;6.93;;;3.45;;
22166;SDS011;11249;52.468;13.776;2023-07-31T06:30:18;9.15;;;4.13;;
22166;SDS011;11249;52.468;13.776;2023-07-31T06:32:44;5.95;;;3.30;;
22166;SDS011;11249;52.468;13.776;2023-07-31T06:35:11;6.57;;;3.38;;
22166;SDS011;11249;52.468;13.776;2023-07-31T06:37:38;8.90;;;3.28;;
22166;SDS011;11249;52.468;13.776;2023-07-31T06:40:06;7.60;;;3.33;;
22166;SDS011;11249;52.468;13.776;2023-07-31T06:42:35;9.43;;;3.05;;
22166;SDS011;11249;52.468;13.776;2023-07-31T06:45:02;9.70;;;3.50;;
22166;SDS011;11249;52.468;13.776;2023-07-31T06:47:29;6.72;;;2.95;;
22166;SDS011;11249;52.468;13.776;2023-07-31T06:49:56;7.35;;;3.30;;
22166;SDS011;11249;52.468;13.776;2023-07-31T06:52:22;6.55;;;3.40;;
22166;SDS011;11249;52.468;13.776;2023-07-31T06:55:02;6.65;;;3.33;;
22166;SDS011;11249;52.468;13.776;2023-07-31T06:57:30;5.00;;;3.25;;
22166;SDS011;11249;52.468;13.776;2023-07-31T06:59:56;6.55;;;2.85;;
22166;SDS011;11249;52.468;13.776;2023-07-31T07:02:23;7.85;;;3.33;;
22166;SDS011;11249;52.468;13.776;2023-07-31T07:04:50;5.70;;;2.80;;
22166;SDS011;11249;52.468;13.776;2023-07-31T07:07:17;8.65;;;2.95;;
22166;SDS011;11249;52.468;13.776;2023-07-31T07:09:44;7.13;;;3.67;;
22166;SDS011;11249;52.468;13.776;2023-07-31T07:12:10;7.95;;;3.58;;
22166;SDS011;11249;52.468;13.776;2023-07-31T07:14:37;6.10;;;3.30;;
22166;SDS011;11249;52.468;13.776;2023-07-31T07:17:04;5.30;;;3.25;;
22166;SDS011;11249;52.468;13.776;2023-07-31T07:19:31;7.25;;;3.30;;
22166;SDS011;11249;52.468;13.776;2023-07-31T07:21:57;6.07;;;3.53;;
22166;SDS011;11249;52.468;13.776;2023-07-31T07:24:27;10.35;;;4.18;;
22166;SDS011;11249;52.468;13.776;2023-07-31T07:26:54;6.63;;;3.55;;
22166;SDS011;11249;52.468;13.776;2023-07-31T07:29:21;6.65;;;3.17;;
22166;SDS011;11249;52.468;13.776;2023-07-31T07:31:48;6.57;;;3.20;;
22166;SDS011;11249;52.468;13.776;2023-07-31T07:34:14;6.88;;;3.45;;
22166;SDS011;11249;52.468;13.776;2023-07-31T07:36:41;6.97;;;3.42;;
22166;SDS011;11249;52.468;13.776;2023-07-31T07:39:09;6.65;;;3.40;;
22166;SDS011;11249;52.468;13.776;2023-07-31T07:41:37;7.00;;;3.95;;
22166;SDS011;11249;52.468;13.776;2023-07-31T07:44:04;6.18;;;3.58;;
22166;SDS011;11249;52.468;13.776;2023-07-31T07:46:31;6.85;;;3.50;;
22166;SDS011;11249;52.468;13.776;2023-07-31T07:48:57;10.07;;;3.50;;
22166;SDS011;11249;52.468;13.776;2023-07-31T07:51:24;6.00;;;4.07;;
22166;SDS011;11249;52.468;13.776;2023-07-31T07:53:51;10.15;;;4.10;;
22166;SDS011;11249;52.468;13.776;2023-07-31T07:56:17;11.55;;;5.43;;
22166;SDS011;11249;52.468;13.776;2023-07-31T07:58:44;16.38;;;9.38;;
22166;SDS011;11249;52.468;13.776;2023-07-31T08:01:14;9.48;;;3.80;;
22166;SDS011;11249;52.468;13.776;2023-07-31T08:03:41;10.70;;;4.88;;
22166;SDS011;11249;52.468;13.776;2023-07-31T08:06:07;8.40;;;3.90;;
22166;SDS011;11249;52.468;13.776;2023-07-31T08:08:35;7.65;;;3.50;;
22166;SDS011;11249;52.468;13.776;2023-07-31T08:11:03;7.57;;;4.32;;
22166;SDS011;11249;52.468;13.776;2023-07-31T08:13:30;7.57;;;3.20;;
22166;SDS011;11249;52.468;13.776;2023-07-31T08:15:57;6.57;;;3.33;;
22166;SDS011;11249;52.468;13.776;2023-07-31T08:18:23;9.10;;;4.25;;
22166;SDS011;11249;52.468;13.776;2023-07-31T08:20:50;7.40;;;3.50;;
22166;SDS011;11249;52.468;13.776;2023-07-31T08:23:17;8.48;;;3.63;;
22166;SDS011;11249;52.468;13.776;2023-07-31T08:25:45;8.88;;;4.07;;
22166;SDS011;11249;52.468;13.776;2023-07-31T08:28:12;6.00;;;3.63;;
22166;SDS011;11249;52.468;13.776;2023-07-31T08:30:39;6.97;;;3.50;;
22166;SDS011;11249;52.468;13.776;2023-07-31T08:33:06;6.90;;;3.30;;
22166;SDS011;11249;52.468;13.776;2023-07-31T08:35:32;9.27;;;4.43;;
22166;SDS011;11249;52.468;13.776;2023-07-31T08:38:00;4.60;;;3.22;;
22166;SDS011;11249;52.468;13.776;2023-07-31T08:40:26;9.10;;;5.47;;
22166;SDS011;11249;52.468;13.776;2023-07-31T08:42:54;4.95;;;2.90;;
22166;SDS011;11249;52.468;13.776;2023-07-31T08:45:28;5.60;;;2.80;;
22166;SDS011;11249;52.468;13.776;2023-07-31T08:47:55;5.18;;;2.72;;
22166;SDS011;11249;52.468;13.776;2023-07-31T08:50:23;8.60;;;2.92;;
22166;SDS011;11249;52.468;13.776;2023-07-31T08:52:50;5.50;;;3.15;;
22166;SDS011;11249;52.468;13.776;2023-07-31T08:55:18;6.28;;;2.88;;
22166;SDS011;11249;52.468;13.776;2023-07-31T08:57:50;4.65;;;2.55;;
22166;SDS011;11249;52.468;13.776;2023-07-31T09:00:19;5.07;;;2.88;;
22166;SDS011;11249;52.468;13.776;2023-07-31T09:03:03;3.28;;;2.30;;
22166;SDS011;11249;52.468;13.776;2023-07-31T09:05:35;4.63;;;2.47;;
22166;SDS011;11249;52.468;13.776;2023-07-31T09:08:02;5.10;;;3.03;;
22166;SDS011;11249;52.468;13.776;2023-07-31T09:10:31;4.82;;;2.95;;
22166;SDS011;11249;52.468;13.776;2023-07-31T09:12:57;6.13;;;3.15;;
22166;SDS011;11249;52.468;13.776;2023-07-31T09:15:25;3.67;;;2.35;;
22166;SDS011;11249;52.468;13.776;2023-07-31T09:18:04;3.45;;;2.55;;
22166;SDS011;11249;52.468;13.776;2023-07-31T09:20:32;6.68;;;2.72;;
22166;SDS011;11249;52.468;13.776;2023-07-31T09:25:37;6.13;;;2.65;;
22166;SDS011;11249;52.468;13.776;2023-07-31T09:28:06;4.80;;;2.25;;
22166;SDS011;11249;52.468;13.776;2023-07-31T09:30:47;3.88;;;2.20;;
22166;SDS011;11249;52.468;13.776;2023-07-31T09:33:15;3.95;;;2.70;;
22166;SDS011;11249;52.468;13.776;2023-07-31T09:35:42;3.88;;;2.45;;
22166;SDS011;11249;52.468;13.776;2023-07-31T09:38:10;4.95;;;2.40;;
22166;SDS011;11249;52.468;13.776;2023-07-31T09:40:39;4.00;;;1.90;;
22166;SDS011;11249;52.468;13.776;2023-07-31T09:43:12;2.78;;;2.10;;
22166;SDS011;11249;52.468;13.776;2023-07-31T09:45:43;4.85;;;2.20;;
22166;SDS011;11249;52.468;13.776;2023-07-31T09:48:11;3.97;;;1.92;;
22166;SDS011;11249;52.468;13.776;2023-07-31T09:50:43;3.90;;;1.65;;
22166;SDS011;11249;52.468;13.776;2023-07-31T09:53:11;3.13;;;1.50;;
22166;SDS011;11249;52.468;13.776;2023-07-31T09:55:38;3.05;;;1.98;;
22166;SDS011;11249;52.468;13.776;2023-07-31T09:58:06;2.85;;;1.58;;
22166;SDS011;11249;52.468;13.776;2023-07-31T10:00:34;1.30;;;1.10;;
22166;SDS011;11249;52.468;13.776;2023-07-31T10:03:06;4.65;;;1.10;;
22166;SDS011;11249;52.468;13.776;2023-07-31T10:05:42;3.33;;;0.82;;
22166;SDS011;11249;52.468;13.776;2023-07-31T10:08:13;3.05;;;1.20;;
22166;SDS011;11249;52.468;13.776;2023-07-31T10:10:42;1.77;;;0.90;;
22166;SDS011;11249;52.468;13.776;2023-07-31T10:13:12;2.35;;;1.52;;
22166;SDS011;11249;52.468;13.776;2023-07-31T10:15:40;3.38;;;1.25;;
22166;SDS011;11249;52.468;13.776;2023-07-31T10:18:07;3.33;;;1.40;;
22166;SDS011;11249;52.468;13.776;2023-07-31T10:20:35;5.47;;;2.03;;
22166;SDS011;11249;52.468;13.776;2023-07-31T10:23:02;2.72;;;1.98;;
22166;SDS011;11249;52.468;13.776;2023-07-31T10:25:30;3.38;;;2.05;;
22166;SDS011;11249;52.468;13.776;2023-07-31T10:27:58;4.55;;;1.70;;
22166;SDS011;11249;52.468;13.776;2023-07-31T10:30:27;3.35;;;2.25;;
22166;SDS011;11249;52.468;13.776;2023-07-31T10:32:56;3.38;;;2.35;;
22166;SDS011;11249;52.468;13.776;2023-07-31T10:35:23;4.95;;;2.35;;
22166;SDS011;11249;52.468;13.776;2023-07-31T10:37:51;6.57;;;2.47;;
22166;SDS011;11249;52.468;13.776;2023-07-31T10:40:24;2.70;;;2.20;;
22166;SDS011;11249;52.468;13.776;2023-07-31T10:42:54;4.57;;;2.67;;
22166;SDS011;11249;52.468;13.776;2023-07-31T10:45:31;6.38;;;3.20;;
22166;SDS011;11249;52.468;13.776;2023-07-31T10:48:12;6.75;;;3.40;;
22166;SDS011;11249;52.468;13.776;2023-07-31T10:50:54;8.88;;;4.10;;
22166;SDS011;11249;52.468;13.776;2023-07-31T10:53:26;4.70;;;3.00;;
22166;SDS011;11249;52.468;13.776;2023-07-31T10:56:02;6.72;;;2.95;;
22166;SDS011;11249;52.468;13.776;2023-07-31T10:58:31;5.97;;;3.33;;
22166;SDS011;11249;52.468;13.776;2023-07-31T11:00:59;14.48;;;3.53;;
22166;SDS011;11249;52.468;13.776;2023-07-31T11:03:48;5.20;;;3.08;;
22166;SDS011;11249;52.468;13.776;2023-07-31T11:06:18;6.95;;;3.53;;
22166;SDS011;11249;52.468;13.776;2023-07-31T11:08:46;4.57;;;3.38;;
22166;SDS011;11249;52.468;13.776;2023-07-31T11:11:15;4.50;;;3.15;;
22166;SDS011;11249;52.468;13.776;2023-07-31T11:13:44;6.30;;;3.33;;
22166;SDS011;11249;52.468;13.776;2023-07-31T11:16:12;7.45;;;4.10;;
22166;SDS011;11249;52.468;13.776;2023-07-31T11:18:40;6.10;;;3.75;;
22166;SDS011;11249;52.468;13.776;2023-07-31T11:21:11;6.60;;;3.28;;
22166;SDS011;11249;52.468;13.776;2023-07-31T11:23:39;5.82;;;3.40;;
22166;SDS011;11249;52.468;13.776;2023-07-31T11:26:07;5.13;;;3.13;;
22166;SDS011;11249;52.468;13.776;2023-07-31T11:28:34;6.25;;;3.70;;
22166;SDS011;11249;52.468;13.776;2023-07-31T11:31:02;5.05;;;3.10;;
22166;SDS011;11249;52.468;13.776;2023-07-31T11:33:29;6.68;;;3.20;;
22166;SDS011;11249;52.468;13.776;2023-07-31T11:35:56;7.05;;;3.80;;
22166;SDS011;11249;52.468;13.776;2023-07-31T11:40:55;5.65;;;3.03;;
22166;SDS011;11249;52.468;13.776;2023-07-31T11:43:23;6.88;;;3.88;;
22166;SDS011;11249;52.468;13.776;2023-07-31T11:45:51;5.35;;;3.20;;
22166;SDS011;11249;52.468;13.776;2023-07-31T11:48:26;4.32;;;3.13;;
22166;SDS011;11249;52.468;13.776;2023-07-31T11:50:58;4.80;;;3.13;;
22166;SDS011;11249;52.468;13.776;2023-07-31T11:53:31;4.95;;;2.90;;
22166;SDS011;11249;52.468;13.776;2023-07-31T11:55:59;3.95;;;2.72;;
22166;SDS011;11249;52.468;13.776;2023-07-31T11:58:27;5.95;;;3.65;;
22166;SDS011;11249;52.468;13.776;2023-07-31T12:00:55;5.75;;;2.92;;
22166;SDS011;11249;52.468;13.776;2023-07-31T12:03:24;6.80;;;2.80;;
22166;SDS011;11249;52.468;13.776;2023-07-31T12:05:51;4.60;;;3.10;;
22166;SDS011;11249;52.468;13.776;2023-07-31T12:08:22;4.10;;;2.78;;
22166;SDS011;11249;52.468;13.776;2023-07-31T12:10:50;7.18;;;3.03;;
22166;SDS011;11249;52.468;13.776;2023-07-31T12:13:22;5.35;;;2.75;;
22166;SDS011;11249;52.468;13.776;2023-07-31T12:15:54;6.60;;;3.53;;
22166;SDS011;11249;52.468;13.776;2023-07-31T12:18:23;7.78;;;3.20;;
22166;SDS011;11249;52.468;13.776;2023-07-31T12:20:56;4.28;;;2.63;;
22166;SDS011;11249;52.468;13.776;2023-07-31T12:23:26;6.80;;;3.30;;
22166;SDS011;11249;52.468;13.776;2023-07-31T12:26:11;4.68;;;2.78;;
22166;SDS011;11249;52.468;13.776;2023-07-31T12:28:42;6.82;;;3.60;;
22166;SDS011;11249;52.468;13.776;2023-07-31T12:31:11;6.88;;;3.03;;
22166;SDS011;11249;52.468;13.776;2023-07-31T12:33:39;5.60;;;3.42;;
22166;SDS011;11249;52.468;13.776;2023-07-31T12:36:08;5.93;;;3.17;;
22166;SDS011;11249;52.468;13.776;2023-07-31T12:38:37;4.00;;;2.72;;
22166;SDS011;11249;52.468;13.776;2023-07-31T12:41:04;7.22;;;2.95;;
22166;SDS011;11249;52.468;13.776;2023-07-31T12:43:33;9.32;;;3.20;;
22166;SDS011;11249;52.468;13.776;2023-07-31T12:46:00;4.65;;;2.80;;
22166;SDS011;11249;52.468;13.776;2023-07-31T12:48:27;3.53;;;2.65;;
22166;SDS011;11249;52.468;13.776;2023-07-31T12:50:54;5.97;;;3.30;;
22166;SDS011;11249;52.468;13.776;2023-07-31T12:53:21;5.85;;;3.03;;
22166;SDS011;11249;52.468;13.776;2023-07-31T12:55:48;6.47;;;3.22;;
22166;SDS011;11249;52.468;13.776;2023-07-31T12:58:14;5.07;;;2.83;;
22166;SDS011;11249;52.468;13.776;2023-07-31T13:00:41;5.38;;;2.63;;
22166;SDS011;11249;52.468;13.776;2023-07-31T13:03:08;4.95;;;2.65;;
22166;SDS011;11249;52.468;13.776;2023-07-31T13:05:35;8.20;;;2.80;;
22166;SDS011;11249;52.468;13.776;2023-07-31T13:08:02;4.70;;;2.53;;
22166;SDS011;11249;52.468;13.776;2023-07-31T13:10:29;4.22;;;2.33;;
22166;SDS011;11249;52.468;13.776;2023-07-31T13:12:56;5.32;;;2.50;;
22166;SDS011;11249;52.468;13.776;2023-07-31T13:15:23;4.00;;;2.40;;
22166;SDS011;11249;52.468;13.776;2023-07-31T13:17:51;4.90;;;2.25;;
22166;SDS011;11249;52.468;13.776;2023-07-31T13:20:17;2.83;;;2.08;;
22166;SDS011;11249;52.468;13.776;2023-07-31T13:22:44;4.25;;;2.38;;
22166;SDS011;11249;52.468;13.776;2023-07-31T13:25:12;3.38;;;2.20;;
22166;SDS011;11249;52.468;13.776;2023-07-31T13:27:39;4.57;;;2.28;;
22166;SDS011;11249;52.468;13.776;2023-07-31T13:30:06;2.42;;;1.98;;
22166;SDS011;11249;52.468;13.776;2023-07-31T13:32:33;4.70;;;2.53;;
22166;SDS011;11249;52.468;13.776;2023-07-31T13:35:00;6.18;;;3.05;;
22166;SDS011;11249;52.468;13.776;2023-07-31T13:37:27;4.90;;;2.95;;
22166;SDS011;11249;52.468;13.776;2023-07-31T13:39:53;4.15;;;2.80;;
22166;SDS011;11249;52.468;13.776;2023-07-31T13:42:20;5.35;;;2.70;;
22166;SDS011;11249;52.468;13.776;2023-07-31T13:44:48;5.47;;;2.63;;
22166;SDS011;11249;52.468;13.776;2023-07-31T13:47:14;4.80;;;2.53;;
22166;SDS011;11249;52.468;13.776;2023-07-31T13:49:41;4.57;;;2.58;;
22166;SDS011;11249;52.468;13.776;2023-07-31T13:52:09;5.80;;;3.00;;
22166;SDS011;11249;52.468;13.776;2023-07-31T13:54:36;5.20;;;3.42;;
22166;SDS011;11249;52.468;13.776;2023-07-31T13:57:02;4.60;;;3.10;;
22166;SDS011;11249;52.468;13.776;2023-07-31T13:59:29;4.90;;;3.00;;
22166;SDS011;11249;52.468;13.776;2023-07-31T14:01:56;8.57;;;3.42;;
22166;SDS011;11249;52.468;13.776;2023-07-31T14:04:23;6.65;;;3.30;;
22166;SDS011;11249;52.468;13.776;2023-07-31T14:06:51;6.20;;;3.63;;
22166;SDS011;11249;52.468;13.776;2023-07-31T14:09:17;5.93;;;3.47;;
22166;SDS011;11249;52.468;13.776;2023-07-31T14:11:44;4.25;;;2.85;;
22166;SDS011;11249;52.468;13.776;2023-07-31T14:14:11;4.90;;;3.05;;
22166;SDS011;11249;52.468;13.776;2023-07-31T14:16:38;7.15;;;3.67;;
22166;SDS011;11249;52.468;13.776;2023-07-31T14:19:06;6.00;;;3.40;;
22166;SDS011;11249;52.468;13.776;2023-07-31T14:21:35;8.48;;;3.33;;
22166;SDS011;11249;52.468;13.776;2023-07-31T14:24:02;10.75;;;4.28;;
22166;SDS011;11249;52.468;13.776;2023-07-31T14:26:30;6.60;;;3.20;;
22166;SDS011;11249;52.468;13.776;2023-07-31T14:28:57;5.57;;;3.20;;
22166;SDS011;11249;52.468;13.776;2023-07-31T14:31:24;5.13;;;3.03;;
22166;SDS011;11249;52.468;13.776;2023-07-31T14:33:51;9.25;;;3.17;;
22166;SDS011;11249;52.468;13.776;2023-07-31T14:36:20;8.52;;;3.50;;
22166;SDS011;11249;52.468;13.776;2023-07-31T14:38:47;5.03;;;2.83;;
22166;SDS011;11249;52.468;13.776;2023-07-31T14:41:13;4.47;;;3.03;;
22166;SDS011;11249;52.468;13.776;2023-07-31T14:43:40;4.80;;;3.30;;
22166;SDS011;11249;52.468;13.776;2023-07-31T14:46:07;4.03;;;3.03;;